Terminal Aerodrome Forecast
Issued by NWS

Home | Current Version | Previous Version | Graphics & Text | Print | Product List | Glossary On
Versions: 1 2 3 4 5 6 7 8 9 10 11 12 13 14 15 16 17 18 19 20
000
FTUS43 KGRB 240859 AAB
TAFRHI
TAF AMD
KRHI 240859Z 2409/2506 18008KT P6SM SCT008 BKN035
      TEMPO 2409/2412 3SM BR BKN008
     FM241200 20009G15KT 6SM BR BKN008 OVC015
     FM241800 24009G15KT 6SM HZ BKN015 BKN035
     FM250200 27004KT 5SM BR SCT015 BKN140=

USA.gov is the U.S. government's official web portal to all federal, state and local government web resources and services.